createdAt,value
2019-05-13T00:00:15.528Z,1.42
2019-05-13T00:02:44.086Z,1.32
2019-05-13T00:05:14.691Z,1.12
2019-05-13T00:07:43.914Z,0.95
2019-05-13T00:10:14.934Z,1.10
2019-05-13T00:12:44.630Z,1.27
2019-05-13T00:15:13.918Z,1.40
2019-05-13T00:17:44.537Z,1.20
2019-05-13T00:20:14.195Z,1.67
2019-05-13T00:22:44.603Z,1.65
2019-05-13T00:25:14.560Z,1.32
2019-05-13T00:27:44.334Z,1.40
2019-05-13T00:30:14.573Z,1.45
2019-05-13T00:32:44.547Z,1.50
2019-05-13T00:35:14.236Z,1.50
2019-05-13T00:37:44.261Z,1.62
2019-05-13T00:40:14.337Z,1.32
2019-05-13T00:42:44.284Z,1.45
2019-05-13T00:45:14.607Z,1.40
2019-05-13T00:47:43.943Z,1.10
2019-05-13T00:50:14.163Z,1.00
2019-05-13T00:52:44.543Z,1.30
2019-05-13T00:55:14.849Z,1.17
2019-05-13T00:57:43.728Z,1.10
2019-05-13T01:00:14.053Z,1.30
2019-05-13T01:02:44.567Z,1.30
2019-05-13T01:05:14.717Z,1.30
2019-05-13T01:07:44.344Z,1.20
2019-05-13T01:10:13.331Z,1.10
2019-05-13T01:12:43.820Z,1.20
2019-05-13T01:15:13.490Z,1.10
2019-05-13T01:17:44.489Z,1.27
2019-05-13T01:20:14.511Z,1.30
2019-05-13T01:22:44.156Z,1.10
2019-05-13T01:25:14.387Z,1.12
2019-05-13T01:27:44.150Z,0.88
2019-05-13T01:30:13.378Z,1.30
2019-05-13T01:32:44.623Z,1.15
2019-05-13T01:35:14.594Z,1.15
2019-05-13T01:37:43.389Z,1.25
2019-05-13T01:40:13.760Z,1.12
2019-05-13T01:42:44.338Z,1.10
2019-05-13T01:45:13.700Z,1.22
2019-05-13T01:47:44.069Z,1.37
2019-05-13T01:50:14.266Z,1.22
2019-05-13T01:52:44.639Z,1.07
2019-05-13T01:55:14.501Z,1.10
2019-05-13T01:57:44.356Z,1.10
2019-05-13T02:00:14.208Z,1.17
2019-05-13T02:02:44.502Z,1.12
2019-05-13T02:05:14.042Z,1.07
2019-05-13T02:07:56.545Z,1.37
2019-05-13T02:10:14.610Z,1.20
2019-05-13T02:12:44.643Z,1.05
2019-05-13T02:15:14.519Z,1.32
2019-05-13T02:17:44.779Z,1.00
2019-05-13T02:20:14.743Z,0.98
2019-05-13T02:22:44.467Z,1.00
2019-05-13T02:25:13.795Z,0.93
2019-05-13T02:27:44.143Z,1.10
2019-05-13T02:30:26.824Z,0.98
2019-05-13T02:32:54.760Z,1.10
2019-05-13T02:35:23.310Z,1.00
2019-05-13T02:37:52.623Z,0.90
2019-05-13T02:40:22.631Z,0.90
2019-05-13T02:42:52.272Z,1.00
2019-05-13T02:45:22.734Z,1.00
2019-05-13T02:47:52.197Z,0.90
2019-05-13T02:50:22.634Z,0.88
2019-05-13T02:52:53.102Z,1.05
2019-05-13T02:55:22.310Z,0.85
2019-05-13T02:57:52.821Z,1.02
2019-05-13T03:00:23.403Z,1.20
2019-05-13T03:02:52.432Z,0.90
2019-05-13T03:05:22.015Z,0.82
2019-05-13T03:07:53.076Z,0.75
2019-05-13T03:10:22.433Z,1.02
2019-05-13T03:12:53.461Z,1.17
2019-05-13T03:15:23.097Z,1.00
2019-05-13T03:17:55.476Z,1.00
2019-05-13T03:20:23.829Z,1.30
2019-05-13T03:22:52.777Z,1.00
2019-05-13T03:25:22.741Z,0.95
2019-05-13T03:27:53.986Z,1.27
2019-05-13T03:30:25.173Z,0.72
2019-05-13T03:32:59.038Z,0.98
2019-05-13T03:35:26.804Z,0.70
2019-05-13T03:37:52.836Z,1.17
2019-05-13T03:40:23.086Z,1.05
2019-05-13T03:42:53.371Z,1.00
2019-05-13T03:45:23.962Z,0.93
2019-05-13T03:47:52.760Z,1.40
2019-05-13T03:50:22.734Z,1.02
2019-05-13T03:52:52.471Z,0.93
2019-05-13T03:55:23.065Z,1.25
2019-05-13T03:57:53.308Z,1.30
2019-05-13T04:00:23.475Z,1.20
2019-05-13T04:02:52.233Z,1.20
2019-05-13T04:05:22.965Z,1.20
2019-05-13T04:07:52.311Z,1.25
2019-05-13T04:10:23.079Z,1.00
2019-05-13T04:12:52.706Z,1.15
2019-05-13T04:15:23.469Z,1.30
2019-05-13T04:17:53.095Z,1.10
2019-05-13T04:20:23.066Z,1.07
2019-05-13T04:22:52.936Z,1.10
2019-05-13T04:25:23.126Z,1.10
2019-05-13T04:27:53.262Z,1.20
2019-05-13T04:30:22.637Z,1.10
2019-05-13T04:32:53.553Z,1.10
2019-05-13T04:35:23.463Z,1.07
2019-05-13T04:37:52.783Z,1.30
2019-05-13T04:40:23.150Z,1.32
2019-05-13T04:42:53.521Z,1.25
2019-05-13T04:45:23.870Z,1.30
2019-05-13T04:47:52.855Z,1.30
2019-05-13T04:50:22.787Z,1.40
2019-05-13T04:52:52.647Z,1.00
2019-05-13T04:55:22.985Z,1.20
2019-05-13T04:57:53.271Z,1.00
2019-05-13T05:00:33.661Z,1.05
2019-05-13T05:03:07.954Z,1.20
2019-05-13T05:05:42.521Z,1.70
2019-05-13T05:08:48.132Z,2.17
2019-05-13T05:11:28.480Z,1.98
2019-05-13T05:14:06.177Z,1.82
2019-05-13T05:17:12.421Z,1.85
2019-05-13T05:20:03.501Z,1.77
2019-05-13T05:22:47.757Z,1.30
2019-05-13T05:25:34.266Z,1.12
2019-05-13T05:28:33.734Z,3.52
2019-05-13T05:31:05.386Z,1.32
2019-05-13T05:34:03.908Z,1.10
2019-05-13T05:36:47.768Z,1.00
2019-05-13T05:39:19.446Z,1.50
2019-05-13T05:41:47.788Z,0.70
2019-05-13T05:44:16.136Z,0.80
2019-05-13T05:46:44.575Z,0.80
2019-05-13T05:49:13.417Z,0.90
2019-05-13T05:51:42.334Z,1.00
2019-05-13T05:54:13.979Z,0.70
2019-05-13T05:56:41.562Z,0.80
2019-05-13T05:59:12.526Z,1.20
2019-05-13T06:01:41.569Z,1.30
2019-05-13T06:04:22.465Z,0.88
2019-05-13T06:06:52.223Z,1.10
2019-05-13T06:09:21.315Z,1.10
2019-05-13T06:11:52.092Z,0.95
2019-05-13T06:14:21.922Z,1.10
2019-05-13T06:16:51.888Z,1.32
2019-05-13T06:19:22.504Z,1.07
2019-05-13T06:21:51.403Z,0.82
2019-05-13T06:24:22.761Z,0.80
2019-05-13T06:26:51.899Z,0.90
2019-05-13T06:29:22.083Z,1.00
2019-05-13T06:31:51.970Z,1.07
2019-05-13T06:34:21.484Z,0.80
2019-05-13T06:36:52.261Z,1.10
2019-05-13T06:39:22.227Z,1.17
2019-05-13T06:41:51.810Z,2.65
2019-05-13T06:44:21.447Z,5.35
2019-05-13T06:46:51.683Z,6.85
2019-05-13T06:49:21.689Z,12.68
2019-05-13T06:51:52.448Z,12.85
2019-05-13T06:54:21.995Z,2.40
2019-05-13T06:56:51.712Z,2.10
2019-05-13T06:59:22.318Z,1.50
2019-05-13T07:01:51.401Z,2.15
2019-05-13T07:04:21.864Z,2.05
2019-05-13T07:06:56.089Z,1.60
2019-05-13T07:09:21.602Z,1.70
2019-05-13T07:11:51.821Z,1.55
2019-05-13T07:14:21.824Z,3.67
2019-05-13T07:16:52.435Z,1.92
2019-05-13T07:19:20.500Z,2.00
2019-05-13T07:21:48.931Z,1.60
2019-05-13T07:24:17.288Z,1.65
2019-05-13T07:26:45.654Z,1.50
2019-05-13T07:29:14.522Z,1.50
2019-05-13T07:31:43.597Z,1.67
2019-05-13T07:34:12.016Z,1.70
2019-05-13T07:36:42.159Z,1.50
2019-05-13T07:39:11.958Z,1.60
2019-05-13T07:41:42.956Z,1.52
2019-05-13T07:44:11.854Z,1.50
2019-05-13T07:47:02.915Z,1.30
2019-05-13T07:49:31.593Z,1.10
2019-05-13T07:52:01.567Z,1.42
2019-05-13T07:54:32.562Z,1.20
2019-05-13T07:57:01.889Z,3.00
2019-05-13T07:59:31.837Z,2.40
2019-05-13T08:02:02.253Z,1.22
2019-05-13T08:04:33.007Z,1.32
2019-05-13T08:07:01.884Z,1.10
2019-05-13T08:09:31.938Z,1.10
2019-05-13T08:12:10.262Z,1.10
2019-05-13T08:14:32.562Z,1.10
2019-05-13T08:17:02.738Z,1.12
2019-05-13T08:19:32.554Z,0.98
2019-05-13T08:22:02.076Z,1.07
2019-05-13T08:24:31.596Z,1.00
2019-05-13T08:27:02.103Z,1.10
2019-05-13T08:29:32.748Z,1.10
2019-05-13T08:32:02.899Z,0.90
2019-05-13T08:34:32.860Z,0.90
2019-05-13T08:37:02.850Z,0.65
2019-05-13T08:39:35.788Z,0.95
2019-05-13T08:42:12.798Z,0.80
2019-05-13T08:44:32.243Z,0.90
2019-05-13T08:47:03.003Z,1.02
2019-05-13T08:49:32.584Z,1.25
2019-05-13T08:52:01.750Z,0.93
2019-05-13T08:54:32.916Z,0.70
2019-05-13T08:57:02.891Z,0.90
2019-05-13T08:59:32.452Z,0.80
2019-05-13T09:02:03.152Z,1.22
2019-05-13T09:04:31.579Z,0.98
2019-05-13T09:07:02.290Z,0.93
2019-05-13T09:09:31.456Z,1.02
2019-05-13T09:12:02.300Z,1.02
2019-05-13T09:14:32.330Z,0.93
2019-05-13T09:17:01.862Z,1.00
2019-05-13T09:19:32.184Z,1.30
2019-05-13T09:22:03.124Z,1.40
2019-05-13T09:24:36.959Z,1.20
2019-05-13T09:27:01.906Z,1.25
2019-05-13T09:29:32.117Z,1.10
2019-05-13T09:32:03.831Z,3.30
2019-05-13T09:34:32.835Z,1.40
2019-05-13T09:37:02.827Z,0.90
2019-05-13T09:39:32.321Z,0.90
2019-05-13T09:42:02.702Z,0.95
2019-05-13T09:47:02.727Z,1.10
2019-05-13T09:49:32.885Z,0.75
2019-05-13T09:52:01.806Z,0.93
2019-05-13T09:54:32.577Z,0.80
2019-05-13T09:57:01.731Z,0.90
2019-05-13T09:59:31.889Z,1.00
2019-05-13T10:02:02.961Z,1.27
2019-05-13T10:04:31.716Z,3.67
2019-05-13T10:07:02.232Z,1.30
2019-05-13T10:09:32.718Z,1.40
2019-05-13T10:12:03.026Z,1.57
2019-05-13T10:14:32.758Z,4.72
2019-05-13T10:17:05.766Z,1.40
2019-05-13T10:19:36.799Z,6.33
2019-05-13T10:22:05.192Z,1.95
2019-05-13T10:24:33.805Z,1.90
2019-05-13T10:27:02.709Z,1.10
2019-05-13T10:29:32.100Z,1.20
2019-05-13T10:32:02.667Z,1.50
2019-05-13T10:34:32.095Z,1.30
2019-05-13T10:37:02.237Z,1.62
2019-05-13T10:39:31.086Z,1.40
2019-05-13T10:41:59.488Z,1.35
2019-05-13T10:44:27.914Z,1.50
2019-05-13T10:46:56.297Z,1.20
2019-05-13T10:49:24.693Z,1.07
2019-05-13T10:51:53.123Z,1.32
2019-05-13T10:54:21.811Z,1.17
2019-05-13T10:56:53.073Z,1.20
2019-05-13T10:59:22.947Z,1.25
2019-05-13T11:01:50.460Z,1.20
2019-05-13T11:04:18.875Z,1.02
2019-05-13T11:06:48.920Z,1.37
2019-05-13T11:09:17.370Z,1.35
2019-05-13T11:12:05.737Z,1.50
2019-05-13T11:14:34.084Z,1.40
2019-05-13T11:17:03.812Z,1.20
2019-05-13T11:19:36.637Z,1.52
2019-05-13T11:22:02.989Z,1.22
2019-05-13T11:24:32.463Z,1.25
2019-05-13T11:27:02.840Z,1.35
2019-05-13T11:29:32.363Z,1.22
2019-05-13T11:32:02.659Z,1.02
2019-05-13T11:34:32.860Z,0.70
2019-05-13T11:37:03.604Z,1.15
2019-05-13T11:39:32.539Z,1.10
2019-05-13T11:42:02.352Z,1.10
2019-05-13T11:44:32.254Z,1.00
2019-05-13T11:47:02.317Z,0.98
2019-05-13T11:49:31.931Z,0.80
2019-05-13T11:52:02.633Z,1.00
2019-05-13T11:54:30.374Z,0.80
2019-05-13T11:57:02.572Z,1.00
2019-05-13T11:59:28.777Z,1.20
2019-05-13T12:01:57.140Z,0.82
2019-05-13T12:04:25.755Z,0.88
2019-05-13T12:06:54.885Z,0.82
2019-05-13T12:09:23.576Z,0.90
2019-05-13T12:11:52.058Z,0.85
2019-05-13T12:14:43.040Z,0.95
2019-05-13T12:16:50.472Z,0.88
2019-05-13T12:19:21.339Z,0.90
2019-05-13T12:21:49.052Z,0.90
2019-05-13T12:24:17.468Z,1.57
2019-05-13T12:26:45.844Z,0.80
2019-05-13T12:29:18.908Z,0.62
2019-05-13T12:31:44.222Z,0.72
2019-05-13T12:34:13.289Z,1.00
2019-05-13T12:36:43.258Z,0.90
2019-05-13T12:39:14.290Z,0.65
2019-05-13T12:41:42.799Z,0.65
2019-05-13T12:44:12.955Z,0.50
2019-05-13T12:46:48.870Z,0.50
2019-05-13T12:49:14.238Z,0.50
2019-05-13T12:51:43.919Z,0.60
2019-05-13T12:54:13.544Z,0.70
2019-05-13T12:56:42.517Z,0.80
2019-05-13T12:59:13.209Z,0.75
2019-05-13T13:01:41.223Z,1.20
2019-05-13T13:04:12.361Z,0.70
2019-05-13T13:06:44.656Z,0.62
2019-05-13T13:09:12.390Z,0.70
2019-05-13T13:11:43.605Z,0.57
2019-05-13T13:14:14.775Z,0.60
2019-05-13T13:16:42.344Z,0.60
2019-05-13T13:19:14.144Z,0.65
2019-05-13T13:21:40.583Z,0.70
2019-05-13T13:24:08.970Z,0.90
2019-05-13T13:26:37.338Z,0.50
2019-05-13T13:29:05.925Z,0.80
2019-05-13T13:31:34.345Z,0.80
2019-05-13T13:34:11.215Z,1.00
2019-05-13T13:36:33.815Z,1.10
2019-05-13T13:39:03.775Z,1.12
2019-05-13T13:41:32.947Z,1.20
2019-05-13T13:44:05.628Z,1.00
2019-05-13T13:46:41.274Z,1.00
2019-05-13T13:49:01.781Z,0.75
2019-05-13T13:51:34.182Z,0.78
2019-05-13T13:54:00.334Z,0.90
2019-05-13T13:56:28.717Z,0.72
2019-05-13T13:58:57.168Z,0.80
2019-05-13T14:01:27.218Z,1.02
2019-05-13T14:03:55.804Z,0.90
2019-05-13T14:06:25.320Z,1.10
2019-05-13T14:07:22.866Z,1.00
2019-05-13T14:08:54.183Z,0.60
2019-05-13T14:11:23.325Z,0.88
2019-05-13T14:13:51.954Z,0.80
2019-05-13T14:16:27.985Z,0.80
2019-05-13T14:18:52.248Z,0.70
2019-05-13T14:21:21.591Z,0.80
2019-05-13T14:23:51.973Z,0.50
2019-05-13T14:26:22.231Z,0.80
2019-05-13T14:28:53.275Z,0.75
2019-05-13T14:31:21.442Z,0.72
2019-05-13T14:33:52.057Z,0.60
2019-05-13T14:36:22.723Z,0.62
2019-05-13T14:38:52.675Z,0.60
2019-05-13T14:41:21.978Z,0.80
2019-05-13T14:43:51.641Z,0.50
2019-05-13T14:46:25.273Z,0.50
2019-05-13T14:48:50.480Z,0.65
2019-05-13T14:51:19.047Z,0.68
2019-05-13T14:53:47.440Z,0.70
2019-05-13T14:56:15.850Z,0.80
2019-05-13T14:58:44.365Z,0.72
2019-05-13T15:01:19.059Z,0.60
2019-05-13T15:03:42.918Z,0.80
2019-05-13T15:06:11.933Z,0.80
2019-05-13T15:08:42.121Z,0.80
2019-05-13T15:11:12.563Z,0.82
2019-05-13T15:13:42.484Z,0.60
2019-05-13T15:16:11.513Z,0.60
2019-05-13T15:18:41.627Z,0.90
2019-05-13T15:21:12.153Z,0.80
2019-05-13T15:23:42.267Z,0.72
2019-05-13T15:26:11.683Z,0.90
2019-05-13T15:28:42.162Z,0.80
2019-05-13T15:31:11.492Z,0.80
2019-05-13T15:33:41.548Z,0.88
2019-05-13T15:36:11.975Z,0.90
2019-05-13T15:38:41.421Z,0.95
2019-05-13T15:41:14.740Z,0.88
2019-05-13T15:43:41.873Z,0.75
2019-05-13T15:46:12.558Z,0.70
2019-05-13T15:48:42.211Z,0.90
2019-05-13T15:51:11.312Z,0.95
2019-05-13T15:53:40.048Z,1.10
2019-05-13T15:56:08.490Z,1.00
2019-05-13T15:58:39.769Z,0.82
2019-05-13T16:01:06.965Z,0.80
2019-05-13T16:03:35.380Z,1.02
2019-05-13T16:06:03.866Z,0.80
2019-05-13T16:08:32.239Z,0.80
2019-05-13T16:11:02.235Z,0.90
2019-05-13T16:13:31.295Z,0.70
2019-05-13T16:16:01.518Z,0.60
2019-05-13T16:18:31.688Z,0.80
2019-05-13T16:21:01.520Z,0.90
2019-05-13T16:23:32.490Z,0.70
2019-05-13T16:26:01.645Z,1.40
2019-05-13T16:28:32.611Z,0.93
2019-05-13T16:31:02.285Z,0.90
2019-05-13T16:33:31.385Z,0.70
2019-05-13T16:36:02.259Z,1.37
2019-05-13T16:38:32.619Z,1.10
2019-05-13T16:41:00.324Z,0.90
2019-05-13T16:43:28.733Z,0.50
2019-05-13T16:45:57.159Z,0.60
2019-05-13T16:48:25.608Z,0.72
2019-05-13T16:50:54.026Z,0.90
2019-05-13T16:53:25.893Z,0.60
2019-05-13T16:55:52.631Z,0.50
2019-05-13T16:58:24.799Z,0.98
2019-05-13T17:00:52.082Z,0.60
2019-05-13T17:03:21.269Z,0.70
2019-05-13T17:05:51.419Z,0.45
2019-05-13T17:08:19.887Z,0.80
2019-05-13T17:10:48.305Z,0.70
2019-05-13T17:13:18.009Z,0.90
2019-05-13T17:15:46.303Z,0.80
2019-05-13T17:18:15.440Z,0.60
2019-05-13T17:20:44.136Z,0.70
2019-05-13T17:23:12.701Z,0.95
2019-05-13T17:25:42.360Z,1.02
2019-05-13T17:28:13.421Z,0.70
2019-05-13T17:30:41.106Z,0.88
2019-05-13T17:33:11.603Z,0.80
2019-05-13T17:35:41.734Z,1.10
2019-05-13T17:38:11.394Z,1.20
2019-05-13T17:40:41.964Z,1.00
2019-05-13T17:43:11.773Z,1.30
2019-05-13T17:45:41.730Z,1.10
2019-05-13T17:48:25.463Z,1.10
2019-05-13T17:50:41.339Z,1.40
2019-05-13T17:53:11.408Z,1.20
2019-05-13T17:55:40.050Z,1.00
2019-05-13T17:58:08.511Z,0.88
2019-05-13T18:00:37.107Z,1.00
2019-05-13T18:03:05.541Z,1.25
2019-05-13T18:05:34.045Z,1.20
2019-05-13T18:08:02.537Z,1.17
2019-05-13T18:10:31.869Z,1.10
2019-05-13T18:13:01.789Z,1.17
2019-05-13T18:15:31.389Z,1.60
2019-05-13T18:18:01.481Z,1.60
2019-05-13T18:20:32.017Z,1.40
2019-05-13T18:23:01.593Z,1.30
2019-05-13T18:25:31.677Z,1.27
2019-05-13T18:28:01.576Z,1.20
2019-05-13T18:30:31.754Z,1.40
2019-05-13T18:33:01.268Z,1.47
2019-05-13T18:35:31.493Z,1.50
2019-05-13T18:38:01.369Z,1.60
2019-05-13T18:40:31.526Z,1.45
2019-05-13T18:43:01.895Z,1.20
2019-05-13T18:45:30.169Z,1.27
2019-05-13T18:47:58.568Z,1.22
2019-05-13T18:50:26.958Z,1.40
2019-05-13T18:52:55.422Z,1.60
2019-05-13T18:55:24.023Z,1.40
2019-05-13T18:57:52.376Z,1.72
2019-05-13T19:00:21.991Z,1.47
2019-05-13T19:02:50.358Z,2.20
2019-05-13T19:05:21.055Z,1.65
2019-05-13T19:07:51.105Z,1.75
2019-05-13T19:10:18.943Z,1.50
2019-05-13T19:12:47.332Z,1.20
2019-05-13T19:15:16.790Z,1.15
2019-05-13T19:17:45.186Z,1.27
2019-05-13T19:20:13.743Z,1.10
2019-05-13T19:22:42.108Z,1.40
2019-05-13T19:25:11.962Z,1.27
2019-05-13T19:27:41.362Z,2.02
2019-05-13T19:30:11.881Z,2.10
2019-05-13T19:32:41.589Z,1.60
2019-05-13T19:35:11.659Z,1.40
2019-05-13T19:37:42.462Z,1.50
2019-05-13T19:40:12.706Z,1.67
2019-05-13T19:42:41.824Z,1.52
2019-05-13T19:45:12.187Z,1.50
2019-05-13T19:47:41.853Z,1.20
2019-05-13T19:50:10.480Z,1.75
2019-05-13T19:52:41.289Z,2.40
2019-05-13T19:55:08.998Z,1.82
2019-05-13T19:57:37.457Z,2.00
2019-05-13T20:00:10.609Z,1.80
2019-05-13T20:02:37.860Z,1.70
2019-05-13T20:05:07.252Z,1.80
2019-05-13T20:07:35.687Z,1.57
2019-05-13T20:10:06.578Z,1.80
2019-05-13T20:12:34.969Z,1.77
2019-05-13T20:15:04.583Z,1.77
2019-05-13T20:17:32.981Z,1.50
2019-05-13T20:20:21.268Z,1.65
2019-05-13T20:22:51.757Z,1.80
2019-05-13T20:25:21.799Z,1.60
2019-05-13T20:27:51.561Z,3.40
2019-05-13T20:30:21.898Z,1.90
2019-05-13T20:32:51.559Z,2.10
2019-05-13T20:35:21.931Z,1.77
2019-05-13T20:37:51.614Z,1.77
2019-05-13T20:40:22.077Z,1.80
2019-05-13T20:42:51.549Z,1.98
2019-05-13T20:45:22.242Z,1.70
2019-05-13T20:47:50.246Z,1.55
2019-05-13T20:50:18.675Z,1.90
2019-05-13T20:52:48.073Z,1.62
2019-05-13T20:55:16.461Z,1.70
2019-05-13T20:57:44.950Z,1.90
2019-05-13T21:00:13.466Z,2.00
2019-05-13T21:02:41.941Z,1.70
2019-05-13T21:05:12.137Z,1.90
2019-05-13T21:07:41.709Z,1.52
2019-05-13T21:10:12.083Z,1.50
2019-05-13T21:12:41.968Z,1.30
2019-05-13T21:15:13.004Z,1.62
2019-05-13T21:17:41.513Z,1.70
2019-05-13T21:20:19.648Z,1.42
2019-05-13T21:22:42.210Z,1.70
2019-05-13T21:25:10.180Z,1.65
2019-05-13T21:27:38.699Z,1.57
2019-05-13T21:30:19.463Z,1.90
2019-05-13T21:32:47.892Z,1.72
2019-05-13T21:35:16.318Z,1.80
2019-05-13T21:37:44.736Z,1.60
2019-05-13T21:40:13.256Z,1.70
2019-05-13T21:42:42.059Z,1.50
2019-05-13T21:45:11.254Z,1.62
2019-05-13T21:47:39.881Z,1.80
2019-05-13T21:50:08.682Z,1.50
2019-05-13T21:52:37.087Z,1.80
2019-05-13T21:55:06.460Z,1.72
2019-05-13T21:57:34.855Z,1.80
2019-05-13T22:00:05.526Z,1.65
2019-05-13T22:02:33.961Z,1.82
2019-05-13T22:05:02.340Z,1.80
2019-05-13T22:07:31.508Z,1.60
2019-05-13T22:10:02.010Z,1.80
2019-05-13T22:12:32.102Z,1.62
2019-05-13T22:15:00.996Z,1.40
2019-05-13T22:17:31.552Z,1.55
2019-05-13T22:20:01.706Z,1.40
2019-05-13T22:22:32.001Z,1.30
2019-05-13T22:25:01.872Z,1.60
2019-05-13T22:27:29.827Z,1.67
2019-05-13T22:29:58.414Z,1.60
2019-05-13T22:32:26.781Z,1.80
2019-05-13T22:34:55.229Z,2.00
2019-05-13T22:37:23.862Z,2.40
2019-05-13T22:39:52.264Z,2.40
2019-05-13T22:42:21.574Z,2.30
2019-05-13T22:44:52.256Z,2.35
2019-05-13T22:47:21.998Z,2.47
2019-05-13T22:49:50.657Z,2.40
2019-05-13T22:52:18.973Z,2.67
2019-05-13T22:54:47.340Z,2.33
2019-05-13T22:57:15.783Z,2.00
2019-05-13T22:59:44.156Z,2.35
2019-05-13T23:02:12.612Z,2.25
2019-05-13T23:04:41.867Z,2.47
2019-05-13T23:07:11.787Z,3.00
2019-05-13T23:09:41.596Z,2.80
2019-05-13T23:12:12.086Z,2.87
2019-05-13T23:14:41.440Z,2.62
2019-05-13T23:17:12.280Z,2.95
2019-05-13T23:19:41.474Z,2.92
2019-05-13T23:22:12.119Z,3.00
2019-05-13T23:24:41.757Z,2.47
2019-05-13T23:27:11.078Z,2.85
2019-05-13T23:29:41.255Z,2.70
2019-05-13T23:32:11.821Z,2.70
2019-05-13T23:34:42.063Z,2.80
2019-05-13T23:37:11.390Z,2.50
2019-05-13T23:39:41.647Z,3.05
2019-05-13T23:42:12.175Z,2.98
2019-05-13T23:44:41.384Z,3.40
2019-05-13T23:47:11.483Z,2.60
2019-05-13T23:49:42.106Z,3.00
2019-05-13T23:52:11.633Z,2.90
2019-05-13T23:54:42.313Z,2.80
2019-05-13T23:57:11.712Z,3.30
2019-05-13T23:59:41.951Z,3.40
